Time;durP1;ratioP1;P1;durP2;ratioP2;P2;SDS_P1;SDS_P2;PMS_P1;PMS_P2;Temp;Humidity;BMP_temperature;BMP_pressure;BME280_temperature;BME280_humidity;BME280_pressure;Samples;Min_cycle;Max_cycle;Signal;HPM_P1;HPM_P2
2022/04/26 03:40:39;;;;;;;24.90;17.77;;;8.60;99.90;;;;;;2609545;54;20394;-75
2022/04/26 03:46:46;;;;;;;23.27;18.43;;;8.50;99.90;;;;;;2609329;54;20225;-75
2022/04/26 03:52:53;;;;;;;27.80;18.87;;;8.50;99.90;;;;;;2608349;54;20159;-77
2022/04/26 03:59:00;;;;;;;24.43;17.73;;;8.40;99.90;;;;;;2606942;39;20891;-76
2022/04/26 04:05:08;;;;;;;25.23;16.93;;;8.40;99.90;;;;;;2610825;54;20201;-75
2022/04/26 04:11:15;;;;;;;22.33;17.23;;;8.60;99.90;;;;;;2609447;54;20638;-75
2022/04/26 04:17:21;;;;;;;21.80;15.73;;;8.60;99.90;;;;;;2607281;54;20157;-73
2022/04/26 04:23:27;;;;;;;20.37;15.70;;;8.60;99.90;;;;;;2614052;54;20242;-75
2022/04/26 04:25:53;;;;;;;23.87;17.70;;;8.50;99.90;;;;;;2613357;54;21011;-74
2022/04/26 04:31:41;;;;;;;20.40;15.70;;;8.50;99.90;;;;;;2611776;54;20451;-74
2022/04/26 04:37:28;;;;;;;20.90;16.30;;;8.40;99.90;;;;;;2614854;54;20448;-74
2022/04/26 04:43:35;;;;;;;23.80;16.50;;;8.40;99.90;;;;;;2614499;39;20581;-73
2022/04/26 04:49:23;;;;;;;26.30;15.17;;;8.30;99.90;;;;;;2613703;54;20433;-74
2022/04/26 04:55:11;;;;;;;27.07;15.83;;;8.20;99.90;;;;;;2614089;47;20189;-74
2022/04/26 05:00:59;;;;;;;21.87;16.17;;;8.20;99.90;;;;;;2615280;54;20162;-76
2022/04/26 05:06:47;;;;;;;20.93;18.17;;;8.40;99.90;;;;;;2612211;54;20177;-74
2022/04/26 05:12:35;;;;;;;18.67;15.00;;;8.40;99.90;;;;;;2610932;47;20259;-74
2022/04/26 05:18:22;;;;;;;20.80;15.93;;;8.30;99.90;;;;;;2613925;54;20441;-79
2022/04/26 05:21:08;;;;;;;20.10;15.70;;;8.40;99.90;;;;;;2614789;54;20433;-78
2022/04/26 05:30:00;;;;;;;16.60;14.80;;;8.50;99.90;;;;;;2614507;54;20991;-74
2022/04/26 05:35:49;;;;;;;17.67;14.83;;;8.50;99.90;;;;;;2615376;54;20146;-75
2022/04/26 05:41:37;;;;;;;17.23;14.10;;;8.50;99.90;;;;;;2611633;46;20468;-73
2022/04/26 05:47:25;;;;;;;21.97;16.90;;;8.50;99.90;;;;;;2613307;54;20190;-76
2022/04/26 05:53:13;;;;;;;15.63;14.00;;;8.50;99.90;;;;;;2613809;54;20170;-73
2022/04/26 05:59:00;;;;;;;14.57;12.93;;;8.70;99.90;;;;;;2612644;54;20146;-75
2022/04/26 06:04:49;;;;;;;19.10;14.63;;;8.60;99.90;;;;;;2615376;47;20169;-74
2022/04/26 06:10:39;;;;;;;17.60;14.40;;;8.60;99.90;;;;;;2613993;54;20253;-75
2022/04/26 06:16:28;;;;;;;21.70;15.10;;;8.70;99.90;;;;;;2614713;54;20400;-75
2022/04/26 06:25:58;;;;;;;22.83;14.97;;;9.00;99.90;;;;;;2614537;54;20412;-74
2022/04/26 06:32:06;;;;;;;18.53;16.03;;;9.10;99.90;;;;;;2616276;39;20870;-73
2022/04/26 06:38:13;;;;;;;17.97;14.53;;;9.30;99.90;;;;;;2614487;54;20390;-75
2022/04/26 06:44:19;;;;;;;15.83;13.63;;;9.60;99.90;;;;;;2615449;54;20688;-75
2022/04/26 06:50:28;;;;;;;20.97;14.30;;;9.50;99.90;;;;;;2616319;54;20414;-74
2022/04/26 06:56:34;;;;;;;20.13;15.57;;;9.90;99.90;;;;;;2614611;54;20452;-75
2022/04/26 07:02:41;;;;;;;19.33;13.97;;;10.00;99.90;;;;;;2613561;54;20174;-75
2022/04/26 07:08:48;;;;;;;21.47;15.80;;;10.00;99.90;;;;;;2613979;54;20432;-76
2022/04/26 07:14:55;;;;;;;20.97;14.37;;;10.10;99.90;;;;;;2615577;54;20410;-74
2022/04/26 07:21:02;;;;;;;19.53;14.40;;;10.10;99.90;;;;;;2615610;54;20158;-74
2022/04/26 07:27:10;;;;;;;21.50;16.07;;;10.10;99.90;;;;;;2614364;54;20481;-74
2022/04/26 07:39:42;;;;;;;21.33;15.70;;;10.40;99.90;;;;;;2614558;54;20402;-75
2022/04/26 07:45:49;;;;;;;34.63;21.57;;;10.50;99.90;;;;;;2615899;54;20370;-74
2022/04/26 07:51:56;;;;;;;25.57;17.43;;;10.80;99.90;;;;;;2615092;54;20556;-75
2022/04/26 07:58:02;;;;;;;27.17;18.57;;;11.30;99.90;;;;;;2615035;54;20202;-75
2022/04/26 08:04:09;;;;;;;22.03;19.53;;;11.80;99.90;;;;;;2615705;39;20600;-75
2022/04/26 08:10:16;;;;;;;26.90;19.23;;;11.60;99.90;;;;;;2614110;46;20203;-74
2022/04/26 08:16:23;;;;;;;27.47;19.17;;;11.60;99.90;;;;;;2613390;54;20496;-76
2022/04/26 08:22:30;;;;;;;22.10;18.57;;;11.40;99.90;;;;;;2613200;54;20742;-75
2022/04/26 08:31:59;;;;;;;23.67;20.10;;;11.40;99.90;;;;;;2614888;54;20431;-76
2022/04/26 08:37:55;;;;;;;24.97;19.80;;;11.50;99.90;;;;;;2614578;39;20565;-76
2022/04/26 08:43:43;;;;;;;22.17;19.17;;;12.10;99.90;;;;;;2614409;54;20162;-75
2022/04/26 08:56:17;;;;;;;20.40;17.67;;;12.70;99.90;;;;;;2615238;39;20994;-75
2022/04/26 09:02:18;;;;;;;23.03;19.00;;;13.00;99.90;;;;;;2613215;54;20428;-75
2022/04/26 09:08:22;;;;;;;23.97;19.50;;;13.40;99.90;;;;;;2614609;54;20398;-75
2022/04/26 09:14:32;;;;;;;24.10;20.43;;;13.40;99.90;;;;;;2614415;51;20415;-76
2022/04/26 09:20:35;;;;;;;21.00;18.90;;;13.50;99.90;;;;;;2616242;54;21016;-76
2022/04/26 09:26:42;;;;;;;24.90;17.77;;;13.50;99.90;;;;;;2612967;54;20418;-75
2022/04/26 09:46:52;;;;;;;19.00;16.37;;;14.30;99.90;;;;;;2614630;54;20416;-77
2022/04/26 09:52:41;;;;;;;17.93;16.13;;;14.40;99.90;;;;;;2613637;54;20426;-76
2022/04/26 09:58:29;;;;;;;21.10;16.83;;;14.50;99.90;;;;;;2613145;47;20427;-78
2022/04/26 10:04:20;;;;;;;19.37;17.43;;;15.30;99.90;;;;;;2613189;54;20556;-75
2022/04/26 10:10:09;;;;;;;18.07;16.27;;;15.60;99.90;;;;;;2612820;54;20431;-75
2022/04/26 10:16:21;;;;;;;18.23;15.87;;;15.70;99.90;;;;;;2615250;54;20439;-75
2022/04/26 10:22:11;;;;;;;19.40;17.13;;;15.50;99.90;;;;;;2613780;46;20428;-76
2022/04/26 10:24:39;;;;;;;19.73;17.30;;;15.50;99.90;;;;;;2614452;54;20476;-76
2022/04/26 10:37:42;;;;;;;17.83;16.17;;;17.10;84.00;;;;;;2614520;39;20847;-76
2022/04/26 10:43:30;;;;;;;16.67;15.23;;;18.10;65.00;;;;;;2614506;54;20155;-75
2022/04/26 10:49:26;;;;;;;18.13;16.23;;;19.70;41.40;;;;;;2615787;47;21077;-77
2022/04/26 10:58:55;;;;;;;16.90;15.33;;;19.40;31.40;;;;;;2615027;54;20405;-76
2022/04/26 11:05:03;;;;;;;19.07;17.17;;;20.40;26.70;;;;;;2615006;54;20168;-77
2022/04/26 11:11:11;;;;;;;19.33;17.50;;;21.70;15.90;;;;;;2615038;54;20382;-74
2022/04/26 11:17:19;;;;;;;21.17;18.23;;;20.00;20.20;;;;;;2614774;54;20562;-76
2022/04/26 11:30:02;;;;;;;22.93;18.30;;;17.40;39.30;;;;;;2616236;54;20457;-76
2022/04/26 11:46:59;;;;;;;19.83;17.70;;;16.00;59.90;;;;;;2613203;54;20528;-75
2022/04/26 11:56:27;;;;;;;21.20;19.30;;;15.90;60.20;;;;;;2611117;54;20410;-76
2022/04/26 12:02:34;;;;;;;24.23;22.03;;;16.70;57.30;;;;;;2614968;46;20174;-76
2022/04/26 12:08:44;;;;;;;22.70;20.50;;;17.20;44.00;;;;;;2615171;54;20415;-76
2022/04/26 12:18:31;;;;;;;30.00;24.20;;;17.00;41.30;;;;;;2614461;54;20508;-77
2022/04/26 12:24:23;;;;;;;25.80;23.00;;;16.10;57.50;;;;;;2614060;54;21330;-76
2022/04/26 12:40:21;;;;;;;23.20;20.70;;;14.70;99.90;;;;;;2613224;54;20390;-75
2022/04/26 12:46:28;;;;;;;23.30;21.07;;;15.00;99.90;;;;;;2612703;54;20418;-76
2022/04/26 12:52:35;;;;;;;26.50;23.70;;;15.80;93.50;;;;;;2615068;46;20194;-75
2022/04/26 12:58:44;;;;;;;21.90;19.20;;;16.10;77.10;;;;;;2615582;54;20407;-76
2022/04/26 13:04:51;;;;;;;21.80;19.83;;;16.70;72.00;;;;;;2615173;54;20431;-75
2022/04/26 13:10:58;;;;;;;23.00;20.17;;;18.50;44.50;;;;;;2615260;54;20257;-74
2022/04/26 13:17:06;;;;;;;20.47;18.57;;;18.20;26.20;;;;;;2615237;54;20152;-76
2022/04/26 13:23:15;;;;;;;21.13;19.33;;;17.50;35.40;;;;;;2614539;54;20388;-78
2022/04/26 13:33:56;;;;;;;22.07;19.80;;;16.70;39.20;;;;;;2614449;39;20821;-75
2022/04/26 13:40:03;;;;;;;17.90;16.10;;;16.20;35.90;;;;;;2613343;39;20836;-77
2022/04/26 13:46:11;;;;;;;22.30;19.97;;;15.20;57.20;;;;;;2614312;54;20520;-76
2022/04/26 13:52:17;;;;;;;28.13;22.90;;;14.50;99.90;;;;;;2613563;54;20433;-76
2022/04/26 14:02:06;;;;;;;26.93;24.23;;;13.30;99.90;;;;;;2614346;54;20437;-76
2022/04/26 14:07:53;;;;;;;30.83;27.13;;;12.90;99.90;;;;;;2614370;54;20450;-77
2022/04/26 14:26:51;;;;;;;36.20;30.27;;;12.90;99.90;;;;;;2613181;51;20410;-76
2022/04/26 14:32:39;;;;;;;30.83;27.57;;;13.10;99.90;;;;;;2615234;54;20427;-78
2022/04/26 14:35:06;;;;;;;32.80;29.17;;;13.10;99.90;;;;;;2614069;54;20455;-78
2022/04/26 14:37:33;;;;;;;36.87;31.53;;;13.40;99.90;;;;;;2614702;54;20424;-77
2022/04/26 14:43:21;;;;;;;40.63;36.33;;;13.50;99.90;;;;;;2615412;54;20436;-76
2022/04/26 14:49:08;;;;;;;32.20;29.00;;;13.70;99.90;;;;;;2614128;54;20439;-77
2022/04/26 14:54:57;;;;;;;33.93;28.10;;;13.60;99.90;;;;;;2614167;54;20166;-75
2022/04/26 15:00:45;;;;;;;29.53;26.40;;;13.70;99.90;;;;;;2614589;54;20439;-75
2022/04/26 15:06:32;;;;;;;28.63;24.90;;;13.90;99.90;;;;;;2613446;54;20420;-76
2022/04/26 15:19:09;;;;;;;29.90;25.67;;;14.20;99.90;;;;;;2614619;54;20435;-76
2022/04/26 15:24:56;;;;;;;22.77;20.30;;;14.40;99.90;;;;;;2615570;54;20411;-77
2022/04/26 15:30:45;;;;;;;24.00;21.27;;;14.80;99.90;;;;;;2613802;39;20443;-76
2022/04/26 15:40:14;;;;;;;21.87;18.07;;;15.10;99.90;;;;;;2615156;54;20387;-75
2022/04/26 15:46:21;;;;;;;17.20;15.40;;;15.00;99.90;;;;;;2615503;54;20154;-75
2022/04/26 15:52:28;;;;;;;21.10;18.90;;;14.30;99.90;;;;;;2616025;54;20977;-75
2022/04/26 15:58:35;;;;;;;19.60;15.57;;;13.30;99.90;;;;;;2615608;54;20383;-75
2022/04/26 16:04:42;;;;;;;15.80;14.20;;;13.00;99.90;;;;;;2614568;54;20504;-74
2022/04/26 16:23:40;;;;;;;14.43;13.13;;;12.30;99.90;;;;;;2616175;54;20471;-78
2022/04/26 16:29:47;;;;;;;16.03;14.43;;;12.20;99.90;;;;;;2615299;54;20154;-76
2022/04/26 16:54:14;;;;;;;17.37;15.43;;;12.50;99.90;;;;;;2613719;54;21020;-75
2022/04/26 17:00:20;;;;;;;16.20;14.50;;;12.80;99.90;;;;;;2613696;54;20454;-78
2022/04/26 17:13:42;;;;;;;16.40;14.70;;;12.90;99.90;;;;;;2613280;54;20435;-76
2022/04/26 17:19:49;;;;;;;17.07;15.40;;;12.90;99.90;;;;;;2612682;54;20468;-76
2022/04/26 17:25:55;;;;;;;14.33;12.93;;;13.20;99.90;;;;;;2613526;54;20179;-76
2022/04/26 17:32:01;;;;;;;16.67;14.93;;;13.00;99.90;;;;;;2613713;54;20199;-75
2022/04/26 17:38:45;;;;;;;15.73;14.13;;;13.10;99.90;;;;;;2614054;54;20560;-76
2022/04/26 17:41:12;;;;;;;16.63;15.07;;;13.30;99.90;;;;;;2613305;47;20427;-76
2022/04/26 17:47:01;;;;;;;16.63;14.87;;;13.10;99.90;;;;;;2614114;47;20943;-78
2022/04/26 17:59:14;;;;;;;17.20;15.20;;;13.30;99.90;;;;;;2614208;46;20430;-76
2022/04/26 18:05:03;;;;;;;16.70;15.03;;;13.40;99.90;;;;;;2613652;47;20423;-76
2022/04/26 18:21:38;;;;;;;16.70;15.00;;;13.20;99.90;;;;;;2614657;54;20443;-75
2022/04/26 18:27:45;;;;;;;16.83;15.10;;;13.30;99.90;;;;;;2615529;39;20292;-75
2022/04/26 18:55:26;;;;;;;20.87;18.87;;;12.90;99.90;;;;;;2614626;39;20799;-76
2022/04/26 19:01:34;;;;;;;20.77;17.23;;;13.00;99.90;;;;;;2614083;54;20374;-77
2022/04/26 19:07:40;;;;;;;19.07;15.77;;;13.00;99.90;;;;;;2614256;54;20411;-75
2022/04/26 19:13:47;;;;;;;20.83;18.60;;;12.70;99.90;;;;;;2612946;54;20154;-78
2022/04/26 19:19:54;;;;;;;23.83;18.77;;;12.60;99.90;;;;;;2614405;54;20521;-75
2022/04/26 19:26:00;;;;;;;25.40;19.57;;;12.20;99.90;;;;;;2615348;54;20402;-77
2022/04/26 19:32:07;;;;;;;21.57;19.30;;;12.10;99.90;;;;;;2615578;54;20406;-74
2022/04/26 19:38:17;;;;;;;21.33;19.10;;;12.30;99.90;;;;;;2614267;54;20435;-76
2022/04/26 20:06:04;;;;;;;20.63;16.57;;;12.50;99.90;;;;;;2613258;54;20944;-75
2022/04/26 20:12:11;;;;;;;16.07;14.57;;;12.40;99.90;;;;;;2613576;39;20837;-76
2022/04/26 20:18:17;;;;;;;13.60;12.20;;;12.20;99.90;;;;;;2613776;54;20410;-76
2022/04/26 20:24:25;;;;;;;11.70;9.20;;;11.90;99.90;;;;;;2614079;54;20216;-75
2022/04/26 20:30:31;;;;;;;16.63;8.00;;;11.60;99.90;;;;;;2613938;54;20446;-79
2022/04/26 20:36:38;;;;;;;10.03;6.70;;;11.60;99.90;;;;;;2615447;54;20478;-75
2022/04/26 20:42:45;;;;;;;7.83;7.00;;;11.50;99.90;;;;;;2615888;54;20537;-75
2022/04/26 20:48:51;;;;;;;7.13;6.53;;;11.40;99.90;;;;;;2615367;39;20847;-76
2022/04/26 20:54:58;;;;;;;7.13;6.30;;;11.30;99.90;;;;;;2615916;54;20178;-74
2022/04/26 21:01:05;;;;;;;7.00;6.30;;;11.30;99.90;;;;;;2615389;39;20538;-76
2022/04/26 21:07:12;;;;;;;8.23;6.47;;;11.30;99.90;;;;;;2615802;39;20572;-74
2022/04/26 21:13:30;;;;;;;6.57;5.97;;;11.20;99.90;;;;;;2615589;54;20413;-76
2022/04/26 21:19:53;;;;;;;10.30;6.83;;;10.90;99.90;;;;;;2614157;54;20467;-76
2022/04/26 21:26:01;;;;;;;9.20;7.50;;;10.70;99.90;;;;;;2615588;39;20762;-77
2022/04/26 21:32:08;;;;;;;8.03;5.93;;;10.50;99.90;;;;;;2616516;54;20410;-76
2022/04/26 21:41:57;;;;;;;7.20;6.27;;;10.20;99.90;;;;;;2616279;39;20912;-76
2022/04/26 21:48:04;;;;;;;12.57;7.00;;;10.00;99.90;;;;;;2615766;54;20410;-75
2022/04/26 21:54:11;;;;;;;8.50;7.67;;;9.90;99.90;;;;;;2616289;54;20430;-75
2022/04/26 22:00:27;;;;;;;9.63;7.13;;;9.60;99.90;;;;;;2616354;54;20161;-76
2022/04/26 22:06:34;;;;;;;12.83;7.10;;;9.70;99.90;;;;;;2616375;54;20394;-77
2022/04/26 22:12:41;;;;;;;13.70;8.23;;;9.50;99.90;;;;;;2616526;54;20503;-74
2022/04/26 22:18:51;;;;;;;8.63;7.53;;;9.50;99.90;;;;;;2616895;39;21016;-75
2022/04/26 22:24:58;;;;;;;7.40;6.57;;;9.30;99.90;;;;;;2616888;39;20725;-75
2022/04/26 22:31:05;;;;;;;10.23;7.17;;;9.20;99.90;;;;;;2613822;54;20140;-76
2022/04/26 22:55:32;;;;;;;11.57;8.47;;;8.70;99.90;;;;;;2614363;54;20560;-76
2022/04/26 23:01:38;;;;;;;9.23;8.23;;;8.60;99.90;;;;;;2615064;54;20419;-76
2022/04/26 23:15:01;;;;;;;10.83;8.70;;;8.20;99.90;;;;;;2614546;54;20442;-77
2022/04/26 23:21:08;;;;;;;14.87;9.03;;;8.30;99.90;;;;;;2614734;39;21481;-75
2022/04/26 23:27:15;;;;;;;11.13;9.30;;;8.00;99.90;;;;;;2614474;54;20389;-75
2022/04/26 23:33:20;;;;;;;11.20;9.00;;;8.00;99.90;;;;;;2614726;54;20479;-75
2022/04/26 23:39:27;;;;;;;11.57;8.67;;;8.10;99.90;;;;;;2614910;54;20186;-74
2022/04/26 23:45:35;;;;;;;17.73;8.73;;;8.20;99.90;;;;;;2615596;54;20482;-74
2022/04/26 23:58:09;;;;;;;12.40;9.00;;;8.30;99.90;;;;;;2615913;54;20402;-76
